sensor_id;sensor_type;location;lat;lon;timestamp;pressure;altitude;pressure_sealevel;temperature
68440;BMP180;55421;51.600;5.718;2023-04-25T00:01:21;93250.00;;;6.60
68440;BMP180;55421;51.600;5.718;2023-04-25T00:03:48;89745.40;;;6.60
68440;BMP180;55421;51.600;5.718;2023-04-25T00:06:15;109045.80;;;6.60
68440;BMP180;55421;51.600;5.718;2023-04-25T00:08:41;89386.80;;;6.60
68440;BMP180;55421;51.600;5.718;2023-04-25T00:11:08;91495.20;;;6.60
68440;BMP180;55421;51.600;5.718;2023-04-25T00:13:34;89457.40;;;6.60
68440;BMP180;55421;51.600;5.718;2023-04-25T00:16:01;99148.60;;;6.50
68440;BMP180;55421;51.600;5.718;2023-04-25T00:18:29;89571.80;;;6.50
68440;BMP180;55421;51.600;5.718;2023-04-25T00:20:55;95324.60;;;6.50
68440;BMP180;55421;51.600;5.718;2023-04-25T00:23:22;89014.40;;;6.40
68440;BMP180;55421;51.600;5.718;2023-04-25T00:25:49;88265.00;;;6.40
68440;BMP180;55421;51.600;5.718;2023-04-25T00:28:16;89819.20;;;6.40
68440;BMP180;55421;51.600;5.718;2023-04-25T00:30:43;107995.20;;;6.40
68440;BMP180;55421;51.600;5.718;2023-04-25T00:33:10;114053.60;;;6.30
68440;BMP180;55421;51.600;5.718;2023-04-25T00:35:36;118726.60;;;6.30
68440;BMP180;55421;51.600;5.718;2023-04-25T00:38:03;119130.60;;;6.30
68440;BMP180;55421;51.600;5.718;2023-04-25T00:40:29;117618.00;;;6.26
68440;BMP180;55421;51.600;5.718;2023-04-25T00:42:55;117819.40;;;6.20
68440;BMP180;55421;51.600;5.718;2023-04-25T00:45:28;119486.40;;;6.20
68440;BMP180;55421;51.600;5.718;2023-04-25T00:47:59;122858.40;;;6.20
68440;BMP180;55421;51.600;5.718;2023-04-25T00:50:25;122293.60;;;6.20
68440;BMP180;55421;51.600;5.718;2023-04-25T00:52:52;123142.60;;;6.20
68440;BMP180;55421;51.600;5.718;2023-04-25T00:55:19;123065.80;;;6.16
68440;BMP180;55421;51.600;5.718;2023-04-25T00:57:46;124283.80;;;6.10
68440;BMP180;55421;51.600;5.718;2023-04-25T01:00:13;122608.80;;;6.10
68440;BMP180;55421;51.600;5.718;2023-04-25T01:02:41;126783.80;;;6.10
68440;BMP180;55421;51.600;5.718;2023-04-25T01:05:08;126219.20;;;6.10
68440;BMP180;55421;51.600;5.718;2023-04-25T01:07:35;127592.20;;;6.10
68440;BMP180;55421;51.600;5.718;2023-04-25T01:10:02;128453.00;;;6.04
68440;BMP180;55421;51.600;5.718;2023-04-25T01:12:29;130252.60;;;6.00
68440;BMP180;55421;51.600;5.718;2023-04-25T01:14:56;131740.41;;;6.00
68440;BMP180;55421;51.600;5.718;2023-04-25T01:17:22;133438.20;;;6.00
68440;BMP180;55421;51.600;5.718;2023-04-25T01:19:50;134199.59;;;5.96
68440;BMP180;55421;51.600;5.718;2023-04-25T01:22:17;135280.00;;;5.90
68440;BMP180;55421;51.600;5.718;2023-04-25T01:24:43;135676.00;;;5.90
68440;BMP180;55421;51.600;5.718;2023-04-25T01:27:10;136507.20;;;5.90
68440;BMP180;55421;51.600;5.718;2023-04-25T01:29:37;136943.80;;;5.82
68440;BMP180;55421;51.600;5.718;2023-04-25T01:32:06;137802.00;;;5.80
68440;BMP180;55421;51.600;5.718;2023-04-25T01:34:32;138412.59;;;5.80
68440;BMP180;55421;51.600;5.718;2023-04-25T01:37:00;138232.59;;;5.80
68440;BMP180;55421;51.600;5.718;2023-04-25T01:39:28;138934.20;;;5.70
68440;BMP180;55421;51.600;5.718;2023-04-25T01:41:55;139899.00;;;5.70
68440;BMP180;55421;51.600;5.718;2023-04-25T01:44:24;140921.20;;;5.70
68440;BMP180;55421;51.600;5.718;2023-04-25T01:46:51;141082.80;;;5.70
68440;BMP180;55421;51.600;5.718;2023-04-25T01:49:17;141232.41;;;5.70
68440;BMP180;55421;51.600;5.718;2023-04-25T01:51:44;141920.80;;;5.68
68440;BMP180;55421;51.600;5.718;2023-04-25T01:54:10;142067.00;;;5.68
68440;BMP180;55421;51.600;5.718;2023-04-25T01:56:38;142178.80;;;5.70
68440;BMP180;55421;51.600;5.718;2023-04-25T01:59:05;142790.00;;;5.60
68440;BMP180;55421;51.600;5.718;2023-04-25T02:01:33;143506.80;;;5.62
68440;BMP180;55421;51.600;5.718;2023-04-25T02:03:59;144374.20;;;5.60
68440;BMP180;55421;51.600;5.718;2023-04-25T02:06:26;144987.41;;;5.62
68440;BMP180;55421;51.600;5.718;2023-04-25T02:08:52;145134.20;;;5.70
68440;BMP180;55421;51.600;5.718;2023-04-25T02:11:19;145641.20;;;5.70
68440;BMP180;55421;51.600;5.718;2023-04-25T02:13:45;146655.00;;;5.70
68440;BMP180;55421;51.600;5.718;2023-04-25T02:16:12;146902.00;;;5.70
68440;BMP180;55421;51.600;5.718;2023-04-25T02:18:39;146924.59;;;5.70
68440;BMP180;55421;51.600;5.718;2023-04-25T02:21:06;147400.59;;;5.70
68440;BMP180;55421;51.600;5.718;2023-04-25T02:23:32;147403.00;;;5.70
68440;BMP180;55421;51.600;5.718;2023-04-25T02:25:59;147958.00;;;5.70
68440;BMP180;55421;51.600;5.718;2023-04-25T02:28:25;148393.59;;;5.70
68440;BMP180;55421;51.600;5.718;2023-04-25T02:30:52;148498.41;;;5.70
68440;BMP180;55421;51.600;5.718;2023-04-25T02:33:19;148857.41;;;5.70
68440;BMP180;55421;51.600;5.718;2023-04-25T02:35:47;148671.41;;;5.70
68440;BMP180;55421;51.600;5.718;2023-04-25T02:38:14;148776.80;;;5.68
68440;BMP180;55421;51.600;5.718;2023-04-25T02:40:41;149368.41;;;5.62
68440;BMP180;55421;51.600;5.718;2023-04-25T02:43:07;146915.00;;;5.60
68440;BMP180;55421;51.600;5.718;2023-04-25T02:45:34;143960.20;;;5.60
68440;BMP180;55421;51.600;5.718;2023-04-25T02:48:03;144260.00;;;5.58
68440;BMP180;55421;51.600;5.718;2023-04-25T02:50:29;144400.20;;;5.54
68440;BMP180;55421;51.600;5.718;2023-04-25T02:52:56;143573.80;;;5.50
68440;BMP180;55421;51.600;5.718;2023-04-25T02:55:22;142632.41;;;5.50
68440;BMP180;55421;51.600;5.718;2023-04-25T02:57:49;142777.80;;;5.50
68440;BMP180;55421;51.600;5.718;2023-04-25T03:00:15;143532.20;;;5.40
68440;BMP180;55421;51.600;5.718;2023-04-25T03:02:42;144459.80;;;5.40
68440;BMP180;55421;51.600;5.718;2023-04-25T03:05:08;142035.80;;;5.40
68440;BMP180;55421;51.600;5.718;2023-04-25T03:07:35;143471.20;;;5.32
68440;BMP180;55421;51.600;5.718;2023-04-25T03:10:01;141596.41;;;5.32
68440;BMP180;55421;51.600;5.718;2023-04-25T03:12:28;142279.80;;;5.30
68440;BMP180;55421;51.600;5.718;2023-04-25T03:14:55;143263.59;;;5.30
68440;BMP180;55421;51.600;5.718;2023-04-25T03:17:21;143617.80;;;5.30
68440;BMP180;55421;51.600;5.718;2023-04-25T03:19:48;142139.59;;;5.30
68440;BMP180;55421;51.600;5.718;2023-04-25T03:22:14;143392.59;;;5.28
68440;BMP180;55421;51.600;5.718;2023-04-25T03:24:41;141752.80;;;5.22
68440;BMP180;55421;51.600;5.718;2023-04-25T03:27:07;140765.59;;;5.20
68440;BMP180;55421;51.600;5.718;2023-04-25T03:29:33;142084.00;;;5.20
68440;BMP180;55421;51.600;5.718;2023-04-25T03:32:00;141702.00;;;5.20
68440;BMP180;55421;51.600;5.718;2023-04-25T03:34:27;141878.80;;;5.20
68440;BMP180;55421;51.600;5.718;2023-04-25T03:36:54;142184.41;;;5.20
68440;BMP180;55421;51.600;5.718;2023-04-25T03:39:21;141269.59;;;5.20
68440;BMP180;55421;51.600;5.718;2023-04-25T03:41:49;142101.20;;;5.20
68440;BMP180;55421;51.600;5.718;2023-04-25T03:44:15;142454.59;;;5.20
68440;BMP180;55421;51.600;5.718;2023-04-25T03:46:41;142275.80;;;5.24
68440;BMP180;55421;51.600;5.718;2023-04-25T03:49:08;140945.00;;;5.30
68440;BMP180;55421;51.600;5.718;2023-04-25T03:51:34;141415.80;;;5.30
68440;BMP180;55421;51.600;5.718;2023-04-25T03:54:01;140930.80;;;5.30
68440;BMP180;55421;51.600;5.718;2023-04-25T03:56:28;140129.41;;;5.30
68440;BMP180;55421;51.600;5.718;2023-04-25T03:58:54;140178.59;;;5.30
68440;BMP180;55421;51.600;5.718;2023-04-25T04:01:20;139829.00;;;5.30
68440;BMP180;55421;51.600;5.718;2023-04-25T04:03:47;139025.80;;;5.20
68440;BMP180;55421;51.600;5.718;2023-04-25T04:06:13;139163.41;;;5.20
68440;BMP180;55421;51.600;5.718;2023-04-25T04:08:41;140970.20;;;5.20
68440;BMP180;55421;51.600;5.718;2023-04-25T04:11:07;139348.00;;;5.20
68440;BMP180;55421;51.600;5.718;2023-04-25T04:13:34;139275.41;;;5.20
68440;BMP180;55421;51.600;5.718;2023-04-25T04:16:00;139247.59;;;5.20
68440;BMP180;55421;51.600;5.718;2023-04-25T04:18:27;139011.41;;;5.20
68440;BMP180;55421;51.600;5.718;2023-04-25T04:20:53;138448.80;;;5.20
68440;BMP180;55421;51.600;5.718;2023-04-25T04:23:20;138988.00;;;5.20
68440;BMP180;55421;51.600;5.718;2023-04-25T04:25:47;138956.20;;;5.20
68440;BMP180;55421;51.600;5.718;2023-04-25T04:28:14;139203.00;;;5.20
68440;BMP180;55421;51.600;5.718;2023-04-25T04:30:42;141001.41;;;5.20
68440;BMP180;55421;51.600;5.718;2023-04-25T04:33:09;140414.41;;;5.14
68440;BMP180;55421;51.600;5.718;2023-04-25T04:35:35;140153.80;;;5.10
68440;BMP180;55421;51.600;5.718;2023-04-25T04:38:01;140486.00;;;5.10
68440;BMP180;55421;51.600;5.718;2023-04-25T04:40:28;140581.80;;;5.10
68440;BMP180;55421;51.600;5.718;2023-04-25T04:42:57;142915.41;;;5.10
68440;BMP180;55421;51.600;5.718;2023-04-25T04:45:24;143928.41;;;5.08
68440;BMP180;55421;51.600;5.718;2023-04-25T04:47:50;143329.59;;;5.00
68440;BMP180;55421;51.600;5.718;2023-04-25T04:50:16;143245.20;;;5.00
68440;BMP180;55421;51.600;5.718;2023-04-25T04:52:44;143794.20;;;5.00
68440;BMP180;55421;51.600;5.718;2023-04-25T04:55:10;143553.41;;;5.00
68440;BMP180;55421;51.600;5.718;2023-04-25T04:57:37;144116.41;;;5.04
68440;BMP180;55421;51.600;5.718;2023-04-25T05:00:05;144740.80;;;5.10
68440;BMP180;55421;51.600;5.718;2023-04-25T05:02:38;145274.20;;;5.12
68440;BMP180;55421;51.600;5.718;2023-04-25T05:05:05;146053.00;;;5.20
68440;BMP180;55421;51.600;5.718;2023-04-25T05:07:32;146381.00;;;5.20
68440;BMP180;55421;51.600;5.718;2023-04-25T05:09:59;146791.00;;;5.30
68440;BMP180;55421;51.600;5.718;2023-04-25T05:12:25;147616.80;;;5.50
68440;BMP180;55421;51.600;5.718;2023-04-25T05:14:52;147384.41;;;5.54
68440;BMP180;55421;51.600;5.718;2023-04-25T05:17:18;147892.80;;;5.70
68440;BMP180;55421;51.600;5.718;2023-04-25T05:19:45;147668.20;;;5.70
68440;BMP180;55421;51.600;5.718;2023-04-25T05:22:11;147615.20;;;5.80
68440;BMP180;55421;51.600;5.718;2023-04-25T05:24:38;146325.80;;;5.74
68440;BMP180;55421;51.600;5.718;2023-04-25T05:27:05;146764.59;;;5.70
68440;BMP180;55421;51.600;5.718;2023-04-25T05:29:31;146889.80;;;5.80
68440;BMP180;55421;51.600;5.718;2023-04-25T05:31:58;147015.59;;;5.80
68440;BMP180;55421;51.600;5.718;2023-04-25T05:34:24;146775.59;;;5.80
68440;BMP180;55421;51.600;5.718;2023-04-25T05:36:51;146770.00;;;5.80
68440;BMP180;55421;51.600;5.718;2023-04-25T05:39:17;147229.00;;;5.84
68440;BMP180;55421;51.600;5.718;2023-04-25T05:41:44;147273.59;;;5.90
68440;BMP180;55421;51.600;5.718;2023-04-25T05:44:10;148426.00;;;5.94
68440;BMP180;55421;51.600;5.718;2023-04-25T05:46:37;148400.00;;;6.02
68440;BMP180;55421;51.600;5.718;2023-04-25T05:49:04;148705.59;;;6.10
68440;BMP180;55421;51.600;5.718;2023-04-25T05:51:30;148131.00;;;6.12
68440;BMP180;55421;51.600;5.718;2023-04-25T05:53:57;146671.00;;;6.20
68440;BMP180;55421;51.600;5.718;2023-04-25T05:56:24;145616.20;;;6.20
68440;BMP180;55421;51.600;5.718;2023-04-25T05:58:51;144863.59;;;6.20
68440;BMP180;55421;51.600;5.718;2023-04-25T06:01:17;141002.00;;;6.10
68440;BMP180;55421;51.600;5.718;2023-04-25T06:03:43;138633.59;;;6.20
68440;BMP180;55421;51.600;5.718;2023-04-25T06:06:11;138895.59;;;6.20
68440;BMP180;55421;51.600;5.718;2023-04-25T06:08:38;137440.41;;;6.28
68440;BMP180;55421;51.600;5.718;2023-04-25T06:11:04;136457.20;;;6.30
68440;BMP180;55421;51.600;5.718;2023-04-25T06:13:31;135916.00;;;6.36
68440;BMP180;55421;51.600;5.718;2023-04-25T06:15:58;135542.80;;;6.40
68440;BMP180;55421;51.600;5.718;2023-04-25T06:18:24;132246.41;;;6.50
68440;BMP180;55421;51.600;5.718;2023-04-25T06:20:51;129977.80;;;6.50
68440;BMP180;55421;51.600;5.718;2023-04-25T06:23:17;127036.20;;;6.60
68440;BMP180;55421;51.600;5.718;2023-04-25T06:25:44;122420.60;;;6.60
68440;BMP180;55421;51.600;5.718;2023-04-25T06:28:10;119721.00;;;6.70
68440;BMP180;55421;51.600;5.718;2023-04-25T06:30:36;117990.60;;;6.80
68440;BMP180;55421;51.600;5.718;2023-04-25T06:33:03;112752.60;;;6.80
68440;BMP180;55421;51.600;5.718;2023-04-25T06:35:29;108764.60;;;6.88
68440;BMP180;55421;51.600;5.718;2023-04-25T06:37:56;106280.20;;;6.82
68440;BMP180;55421;51.600;5.718;2023-04-25T06:40:22;96681.80;;;6.90
68440;BMP180;55421;51.600;5.718;2023-04-25T06:42:49;91458.40;;;7.00
68440;BMP180;55421;51.600;5.718;2023-04-25T06:45:16;81905.80;;;7.10
68440;BMP180;55421;51.600;5.718;2023-04-25T06:47:42;59322.00;;;7.20
68440;BMP180;55421;51.600;5.718;2023-04-25T06:50:09;45268.80;;;7.20
68440;BMP180;55421;51.600;5.718;2023-04-25T06:52:37;32608.80;;;7.30
68440;BMP180;55421;51.600;5.718;2023-04-25T06:55:03;32497.00;;;7.40
68440;BMP180;55421;51.600;5.718;2023-04-25T06:57:32;31782.20;;;7.50
68440;BMP180;55421;51.600;5.718;2023-04-25T06:59:58;54594.20;;;7.60
68440;BMP180;55421;51.600;5.718;2023-04-25T07:02:24;48548.40;;;7.60
68440;BMP180;55421;51.600;5.718;2023-04-25T07:04:51;39672.00;;;7.70
68440;BMP180;55421;51.600;5.718;2023-04-25T07:07:18;27468.60;;;7.70
68440;BMP180;55421;51.600;5.718;2023-04-25T07:09:44;26957.40;;;7.70
68440;BMP180;55421;51.600;5.718;2023-04-25T07:12:10;21891.20;;;7.80
68440;BMP180;55421;51.600;5.718;2023-04-25T07:14:37;10513.40;;;7.90
68440;BMP180;55421;51.600;5.718;2023-04-25T07:17:04;59573.40;;;7.90
68440;BMP180;55421;51.600;5.718;2023-04-25T07:19:33;13683.00;;;8.00
68440;BMP180;55421;51.600;5.718;2023-04-25T07:21:59;147873.00;;;8.08
68440;BMP180;55421;51.600;5.718;2023-04-25T07:24:26;101415.60;;;8.30
68440;BMP180;55421;51.600;5.718;2023-04-25T07:26:53;188972.41;;;8.40
68440;BMP180;55421;51.600;5.718;2023-04-25T07:29:19;144615.80;;;8.40
68440;BMP180;55421;51.600;5.718;2023-04-25T07:31:46;144606.00;;;8.50
68440;BMP180;55421;51.600;5.718;2023-04-25T07:34:12;229288.80;;;8.60
68440;BMP180;55421;51.600;5.718;2023-04-25T07:36:39;223947.00;;;8.60
68440;BMP180;55421;51.600;5.718;2023-04-25T07:39:06;220466.00;;;8.50
68440;BMP180;55421;51.600;5.718;2023-04-25T07:41:32;220480.00;;;8.50
68440;BMP180;55421;51.600;5.718;2023-04-25T07:43:59;219467.59;;;8.68
68440;BMP180;55421;51.600;5.718;2023-04-25T07:46:25;219685.59;;;8.80
68440;BMP180;55421;51.600;5.718;2023-04-25T07:48:52;219280.20;;;8.64
68440;BMP180;55421;51.600;5.718;2023-04-25T07:51:18;219290.20;;;8.70
68440;BMP180;55421;51.600;5.718;2023-04-25T07:53:45;219314.20;;;8.70
68440;BMP180;55421;51.600;5.718;2023-04-25T07:56:12;219293.00;;;8.70
68440;BMP180;55421;51.600;5.718;2023-04-25T07:58:38;219261.00;;;8.60
68440;BMP180;55421;51.600;5.718;2023-04-25T08:01:05;219305.41;;;8.70
68440;BMP180;55421;51.600;5.718;2023-04-25T08:03:31;219396.00;;;8.86
68440;BMP180;55421;51.600;5.718;2023-04-25T08:05:58;219438.41;;;8.90
68440;BMP180;55421;51.600;5.718;2023-04-25T08:08:24;219436.00;;;8.90
68440;BMP180;55421;51.600;5.718;2023-04-25T08:10:51;219409.59;;;8.90
68440;BMP180;55421;51.600;5.718;2023-04-25T08:13:17;219341.00;;;8.80
68440;BMP180;55421;51.600;5.718;2023-04-25T08:15:44;219272.20;;;8.60
68440;BMP180;55421;51.600;5.718;2023-04-25T08:18:10;219253.41;;;8.60
68440;BMP180;55421;51.600;5.718;2023-04-25T08:20:37;219297.80;;;8.70
68440;BMP180;55421;51.600;5.718;2023-04-25T08:23:04;219360.59;;;8.80
68440;BMP180;55421;51.600;5.718;2023-04-25T08:25:30;219430.80;;;8.90
68440;BMP180;55421;51.600;5.718;2023-04-25T08:27:57;219490.59;;;9.00
68440;BMP180;55421;51.600;5.718;2023-04-25T08:30:25;219524.20;;;9.10
68440;BMP180;55421;51.600;5.718;2023-04-25T08:32:53;219597.20;;;9.20
68440;BMP180;55421;51.600;5.718;2023-04-25T08:35:20;219643.20;;;9.30
68440;BMP180;55421;51.600;5.718;2023-04-25T08:37:46;219634.00;;;9.30
68440;BMP180;55421;51.600;5.718;2023-04-25T08:40:15;219665.00;;;9.30
68440;BMP180;55421;51.600;5.718;2023-04-25T08:42:42;219744.41;;;9.50
68440;BMP180;55421;51.600;5.718;2023-04-25T08:45:10;219854.59;;;9.70
68440;BMP180;55421;51.600;5.718;2023-04-25T08:47:38;219854.20;;;9.70
68440;BMP180;55421;51.600;5.718;2023-04-25T08:50:06;219865.41;;;9.70
68440;BMP180;55421;51.600;5.718;2023-04-25T08:52:40;219860.59;;;9.70
68440;BMP180;55421;51.600;5.718;2023-04-25T08:55:12;219847.41;;;9.70
68440;BMP180;55421;51.600;5.718;2023-04-25T08:57:40;219948.20;;;9.80
68440;BMP180;55421;51.600;5.718;2023-04-25T09:00:11;219956.00;;;9.82
68440;BMP180;55421;51.600;5.718;2023-04-25T09:02:39;219931.41;;;9.80
68440;BMP180;55421;51.600;5.718;2023-04-25T09:05:06;219898.59;;;9.74
68440;BMP180;55421;51.600;5.718;2023-04-25T09:07:33;219865.00;;;9.70
68440;BMP180;55421;51.600;5.718;2023-04-25T09:09:59;219827.41;;;9.60
68440;BMP180;55421;51.600;5.718;2023-04-25T09:12:29;219797.59;;;9.60
68440;BMP180;55421;51.600;5.718;2023-04-25T09:15:12;219774.80;;;9.50
68440;BMP180;55421;51.600;5.718;2023-04-25T09:17:41;219800.41;;;9.60
68440;BMP180;55421;51.600;5.718;2023-04-25T09:20:13;219874.59;;;9.70
68440;BMP180;55421;51.600;5.718;2023-04-25T09:22:40;220043.80;;;10.00
68440;BMP180;55421;51.600;5.718;2023-04-25T09:25:11;220139.59;;;10.20
68440;BMP180;55421;51.600;5.718;2023-04-25T09:27:53;220193.20;;;10.30
68440;BMP180;55421;51.600;5.718;2023-04-25T09:30:30;220243.80;;;10.40
68440;BMP180;55421;51.600;5.718;2023-04-25T09:33:04;220297.59;;;10.48
68440;BMP180;55421;51.600;5.718;2023-04-25T09:35:37;220310.80;;;10.50
68440;BMP180;55421;51.600;5.718;2023-04-25T09:38:10;220274.59;;;10.40
68440;BMP180;55421;51.600;5.718;2023-04-25T09:40:44;220235.20;;;10.40
68440;BMP180;55421;51.600;5.718;2023-04-25T09:43:24;220121.59;;;10.14
68440;BMP180;55421;51.600;5.718;2023-04-25T09:45:54;219972.41;;;9.90
68440;BMP180;55421;51.600;5.718;2023-04-25T09:48:25;219730.00;;;9.44
68440;BMP180;55421;51.600;5.718;2023-04-25T09:53:38;219172.20;;;8.50
68440;BMP180;55421;51.600;5.718;2023-04-25T09:56:07;219065.80;;;8.30
68440;BMP180;55421;51.600;5.718;2023-04-25T09:58:37;219020.80;;;8.20
68440;BMP180;55421;51.600;5.718;2023-04-25T10:01:07;219013.20;;;8.20
68440;BMP180;55421;51.600;5.718;2023-04-25T10:03:38;219024.00;;;8.20
68440;BMP180;55421;51.600;5.718;2023-04-25T10:06:09;219078.20;;;8.30
68440;BMP180;55421;51.600;5.718;2023-04-25T10:08:38;219141.41;;;8.40
68440;BMP180;55421;51.600;5.718;2023-04-25T10:11:08;219163.41;;;8.46
68440;BMP180;55421;51.600;5.718;2023-04-25T10:13:36;219183.80;;;8.50
68440;BMP180;55421;51.600;5.718;2023-04-25T10:16:04;219302.20;;;8.70
68440;BMP180;55421;51.600;5.718;2023-04-25T10:18:32;219403.20;;;8.90
68440;BMP180;55421;51.600;5.718;2023-04-25T10:21:04;219523.00;;;9.10
68440;BMP180;55421;51.600;5.718;2023-04-25T10:23:32;219675.59;;;9.34
68440;BMP180;55421;51.600;5.718;2023-04-25T10:26:01;219811.00;;;9.60
68440;BMP180;55421;51.600;5.718;2023-04-25T10:28:28;219935.80;;;9.80
68440;BMP180;55421;51.600;5.718;2023-04-25T10:31:03;220075.00;;;10.08
68440;BMP180;55421;51.600;5.718;2023-04-25T10:33:42;220194.80;;;10.30
68440;BMP180;55421;51.600;5.718;2023-04-25T10:36:19;220303.59;;;10.50
68440;BMP180;55421;51.600;5.718;2023-04-25T10:38:49;220392.00;;;10.60
68440;BMP180;55421;51.600;5.718;2023-04-25T10:41:21;220492.20;;;10.80
68440;BMP180;55421;51.600;5.718;2023-04-25T10:43:59;220616.20;;;11.00
68440;BMP180;55421;51.600;5.718;2023-04-25T10:46:28;220688.41;;;11.14
68440;BMP180;55421;51.600;5.718;2023-04-25T10:49:00;220807.80;;;11.38
68440;BMP180;55421;51.600;5.718;2023-04-25T10:51:31;220960.41;;;11.64
68440;BMP180;55421;51.600;5.718;2023-04-25T10:54:07;221028.41;;;11.76
68440;BMP180;55421;51.600;5.718;2023-04-25T10:56:38;221140.41;;;11.96
68440;BMP180;55421;51.600;5.718;2023-04-25T10:59:15;221182.20;;;12.00
68440;BMP180;55421;51.600;5.718;2023-04-25T11:01:47;221064.80;;;11.80
68440;BMP180;55421;51.600;5.718;2023-04-25T11:04:25;220781.20;;;11.32
68440;BMP180;55421;51.600;5.718;2023-04-25T11:09:49;220344.41;;;10.50
68440;BMP180;55421;51.600;5.718;2023-04-25T11:12:16;220211.20;;;10.30
68440;BMP180;55421;51.600;5.718;2023-04-25T11:14:43;220079.41;;;10.06
68440;BMP180;55421;51.600;5.718;2023-04-25T11:17:10;219947.59;;;9.82
68440;BMP180;55421;51.600;5.718;2023-04-25T11:19:37;219801.00;;;9.58
68440;BMP180;55421;51.600;5.718;2023-04-25T11:22:03;219661.80;;;9.30
68440;BMP180;55421;51.600;5.718;2023-04-25T11:24:36;219552.41;;;9.12
68440;BMP180;55421;51.600;5.718;2023-04-25T11:27:04;219454.00;;;9.00
68440;BMP180;55421;51.600;5.718;2023-04-25T11:29:34;219378.41;;;8.80
68440;BMP180;55421;51.600;5.718;2023-04-25T11:32:02;219321.41;;;8.70
68440;BMP180;55421;51.600;5.718;2023-04-25T11:34:30;219309.80;;;8.70
68440;BMP180;55421;51.600;5.718;2023-04-25T11:36:57;219309.80;;;8.70
68440;BMP180;55421;51.600;5.718;2023-04-25T11:39:26;219325.80;;;8.70
68440;BMP180;55421;51.600;5.718;2023-04-25T11:41:55;219352.59;;;8.80
68440;BMP180;55421;51.600;5.718;2023-04-25T11:44:22;219424.00;;;8.90
68440;BMP180;55421;51.600;5.718;2023-04-25T11:46:49;219458.80;;;9.00
68440;BMP180;55421;51.600;5.718;2023-04-25T11:49:15;219524.20;;;9.10
68440;BMP180;55421;51.600;5.718;2023-04-25T11:51:47;219621.20;;;9.24
68440;BMP180;55421;51.600;5.718;2023-04-25T11:54:15;219737.20;;;9.48
68440;BMP180;55421;51.600;5.718;2023-04-25T11:56:45;219874.59;;;9.70
68440;BMP180;55421;51.600;5.718;2023-04-25T11:59:12;219966.41;;;9.88
68440;BMP180;55421;51.600;5.718;2023-04-25T12:01:48;220112.00;;;10.10
68440;BMP180;55421;51.600;5.718;2023-04-25T12:04:25;220271.41;;;10.40
68440;BMP180;55421;51.600;5.718;2023-04-25T12:06:54;220471.80;;;10.78
68440;BMP180;55421;51.600;5.718;2023-04-25T12:09:33;220642.59;;;11.08
68440;BMP180;55421;51.600;5.718;2023-04-25T12:12:01;220809.80;;;11.38
68440;BMP180;55421;51.600;5.718;2023-04-25T12:14:35;220904.00;;;11.52
68440;BMP180;55421;51.600;5.718;2023-04-25T12:17:03;220971.59;;;11.68
68440;BMP180;55421;51.600;5.718;2023-04-25T12:19:34;220896.80;;;11.50
68440;BMP180;55421;51.600;5.718;2023-04-25T12:22:02;220872.00;;;11.48
68440;BMP180;55421;51.600;5.718;2023-04-25T12:24:33;220776.80;;;11.30
68440;BMP180;55421;51.600;5.718;2023-04-25T12:27:03;220787.59;;;11.30
68440;BMP180;55421;51.600;5.718;2023-04-25T12:29:34;220751.20;;;11.30
68440;BMP180;55421;51.600;5.718;2023-04-25T12:32:01;220724.00;;;11.20
68440;BMP180;55421;51.600;5.718;2023-04-25T12:34:28;220770.41;;;11.30
68440;BMP180;55421;51.600;5.718;2023-04-25T12:36:54;220857.80;;;11.40
68440;BMP180;55421;51.600;5.718;2023-04-25T12:39:24;220926.41;;;11.60
68440;BMP180;55421;51.600;5.718;2023-04-25T12:41:52;220944.41;;;11.60
68440;BMP180;55421;51.600;5.718;2023-04-25T12:44:22;220960.41;;;11.60
68440;BMP180;55421;51.600;5.718;2023-04-25T12:46:48;221024.20;;;11.76
68440;BMP180;55421;51.600;5.718;2023-04-25T12:49:16;221075.20;;;11.80
68440;BMP180;55421;51.600;5.718;2023-04-25T12:51:42;221088.00;;;11.82
68440;BMP180;55421;51.600;5.718;2023-04-25T12:54:09;221114.41;;;11.90
68440;BMP180;55421;51.600;5.718;2023-04-25T12:56:36;221103.20;;;11.90
68440;BMP180;55421;51.600;5.718;2023-04-25T12:59:03;221096.80;;;11.90
68440;BMP180;55421;51.600;5.718;2023-04-25T13:01:30;221137.59;;;11.94
68440;BMP180;55421;51.600;5.718;2023-04-25T13:03:56;221215.41;;;12.10
68440;BMP180;55421;51.600;5.718;2023-04-25T13:06:23;221286.59;;;12.20
68440;BMP180;55421;51.600;5.718;2023-04-25T13:08:50;221259.00;;;12.20
68440;BMP180;55421;51.600;5.718;2023-04-25T13:11:16;221212.59;;;12.10
68440;BMP180;55421;51.600;5.718;2023-04-25T13:13:44;221191.00;;;12.00
68440;BMP180;55421;51.600;5.718;2023-04-25T13:16:11;221064.80;;;11.80
68440;BMP180;55421;51.600;5.718;2023-04-25T13:18:40;220895.59;;;11.50
68440;BMP180;55421;51.600;5.718;2023-04-25T13:21:09;220734.80;;;11.24
68440;BMP180;55421;51.600;5.718;2023-04-25T13:23:37;220559.00;;;10.90
68440;BMP180;55421;51.600;5.718;2023-04-25T13:26:04;220483.80;;;10.80
68440;BMP180;55421;51.600;5.718;2023-04-25T13:28:33;220427.41;;;10.70
68440;BMP180;55421;51.600;5.718;2023-04-25T13:30:59;220361.59;;;10.60
68440;BMP180;55421;51.600;5.718;2023-04-25T13:33:26;220352.41;;;10.54
68440;BMP180;55421;51.600;5.718;2023-04-25T13:35:53;220405.20;;;10.64
68440;BMP180;55421;51.600;5.718;2023-04-25T13:38:23;220562.00;;;10.92
68440;BMP180;55421;51.600;5.718;2023-04-25T13:40:50;220745.59;;;11.26
68440;BMP180;55421;51.600;5.718;2023-04-25T13:43:22;220751.20;;;11.30
68440;BMP180;55421;51.600;5.718;2023-04-25T13:45:50;220795.80;;;11.30
68440;BMP180;55421;51.600;5.718;2023-04-25T13:48:18;220815.00;;;11.40
68440;BMP180;55421;51.600;5.718;2023-04-25T13:50:44;220840.59;;;11.40
68440;BMP180;55421;51.600;5.718;2023-04-25T13:53:12;220849.41;;;11.40
68440;BMP180;55421;51.600;5.718;2023-04-25T13:55:38;220772.00;;;11.30
68440;BMP180;55421;51.600;5.718;2023-04-25T13:58:05;220752.80;;;11.30
68440;BMP180;55421;51.600;5.718;2023-04-25T14:00:38;220777.41;;;11.30
68440;BMP180;55421;51.600;5.718;2023-04-25T14:03:05;220819.41;;;11.40
68440;BMP180;55421;51.600;5.718;2023-04-25T14:05:35;220819.80;;;11.40
68440;BMP180;55421;51.600;5.718;2023-04-25T14:08:07;220684.00;;;11.12
68440;BMP180;55421;51.600;5.718;2023-04-25T14:10:35;220621.00;;;11.02
68440;BMP180;55421;51.600;5.718;2023-04-25T14:13:02;220685.80;;;11.16
68440;BMP180;55421;51.600;5.718;2023-04-25T14:15:34;220765.59;;;11.30